Silver Lucky — VRHT4 — position and weather

sailwx.info

Track history (hours):
 
Tides and Currents Weather Stations Pressure Air Temp Water Temp Dewpoint Dewpoint Depression Visibility Wind Speed Wind Dir Waves Ship Positions

Silver Lucky

Last reported at 2018-Jul-15 12:48 UTC. Time now 2018-Jul-21 02:03 UTC.
Position N 01°22' E 104°25'.

Length 120 m; draft 8.5 m.

Type: Cargo ship. MMSI: 477746300.

Date/timePositionNaut miles runAvg speedWind from/ knotsBaromVisibWave heightAir tempDewpointWater temp
2018-Jul-15 12:48N 01°22' E 104°25'310.0
2018-Jul-15 12:30N 01°20' E 104°23'5 9.2
2018-Jul-15 11:56N 01°17' E 104°19'4 9.2
2018-Jul-15 11:30N 01°16' E 104°15'510.3
2018-Jul-15 10:59N 01°16' E 104°10'4 8.2
2018-Jul-15 10:30N 01°18' E 104°06'510.3
2018-Jul-15 09:59N 01°22' E 104°03'5 9.9
2018-Jul-15 09:30N 01°24' E 103°58'4 8.2
2018-Jul-15 08:59N 01°26' E 103°55'0 0.4
2018-Jul-15 08:29N 01°26' E 103°55'0 0.0
2018-Jul-15 07:58N 01°26' E 103°55'0 0.0
2018-Jul-15 07:30N 01°26' E 103°55'0 0.0
2018-Jul-15 06:58N 01°26' E 103°55'0 0.0
2018-Jul-15 06:15N 01°26' E 103°55'0 0.0
2018-Jul-15 05:51N 01°26' E 103°55'0 0.0
2018-Jul-15 04:43N 01°26' E 103°55'0 0.0
2018-Jul-15 03:31N 01°26' E 103°55'0 0.0
2018-Jul-15 03:28N 01°26' E 103°55'0 0.0
2018-Jul-15 02:46N 01°26' E 103°55'0 0.0
2018-Jul-15 02:22N 01°26' E 103°55'0 0.0
2018-Jul-15 01:10N 01°26' E 103°55'0 0.0
2018-Jul-15 00:42N 01°26' E 103°55'0 0.0
2018-Jul-15 00:21N 01°26' E 103°55'0 0.0
2018-Jul-14 23:46N 01°26' E 103°55'0 0.0
2018-Jul-14 23:22N 01°26' E 103°55'0 0.0
2018-Jul-14 22:54N 01°26' E 103°55'0 0.0
2018-Jul-14 22:21N 01°26' E 103°55'0 0.0
2018-Jul-14 21:57N 01°26' E 103°55'0 0.0
2018-Jul-14 21:27N 01°26' E 103°55'0 0.0
2018-Jul-14 20:49N 01°26' E 103°55'0 0.0
2018-Jul-14 20:30N 01°26' E 103°55'0 0.0
2018-Jul-14 19:57N 01°26' E 103°55'0 0.0
2018-Jul-14 19:30N 01°26' E 103°55'0 0.0
2018-Jul-14 18:57N 01°26' E 103°55'0 0.0
2018-Jul-14 18:28N 01°26' E 103°55'0 0.0
2018-Jul-14 17:57N 01°26' E 103°55'0 0.0
2018-Jul-14 17:30N 01°26' E 103°55'0 0.0
2018-Jul-14 16:58N 01°26' E 103°55'0 0.0
2018-Jul-14 16:30N 01°26' E 103°55'0 0.0
2018-Jul-14 15:58N 01°26' E 103°55'0 0.0
2018-Jul-14 15:30N 01°26' E 103°55'0 0.0
2018-Jul-14 14:54N 01°26' E 103°55'0 0.0
2018-Jul-14 14:30N 01°26' E 103°55'0 0.0
2018-Jul-14 13:30N 01°26' E 103°55'0 0.0
2018-Jul-14 12:58N 01°26' E 103°55'0 0.0
2018-Jul-14 12:15N 01°26' E 103°55'0 0.0
2018-Jul-14 11:57N 01°26' E 103°55'0 0.0
2018-Jul-14 11:21N 01°26' E 103°55'0 0.0
2018-Jul-14 10:57N 01°26' E 103°55'0 0.0
2018-Jul-14 10:28N 01°26' E 103°55'0 0.0
2018-Jul-14 09:57N 01°26' E 103°55'0 0.0
2018-Jul-14 09:30N 01°26' E 103°55'0 0.0
2018-Jul-14 08:57N 01°26' E 103°55'0 0.0
2018-Jul-14 08:15N 01°26' E 103°55'0 0.0
2018-Jul-14 07:57N 01°26' E 103°55'0 0.0
2018-Jul-14 06:42N 01°26' E 103°55'0 0.0
2018-Jul-14 06:30N 01°26' E 103°55'0 0.0
2018-Jul-14 05:34N 01°26' E 103°55'0 0.0
2018-Jul-14 05:28N 01°26' E 103°55'0 0.0
2018-Jul-14 04:54N 01°26' E 103°55'0 0.0
2018-Jul-14 04:27N 01°26' E 103°55'0 0.0
2018-Jul-14 03:45N 01°26' E 103°55'0 0.0
2018-Jul-14 03:22N 01°26' E 103°55'0 0.0
2018-Jul-14 03:00N 01°26' E 103°55'0 0.0
2018-Jul-14 02:30N 01°26' E 103°55'0 0.0
2018-Jul-14 01:54N 01°26' E 103°55'0 0.0
2018-Jul-14 01:27N 01°26' E 103°55'0 0.0
2018-Jul-14 00:58N 01°26' E 103°55'0 0.0
2018-Jul-14 00:15N 01°26' E 103°55'0 0.0
2018-Jul-13 23:52N 01°26' E 103°55'0 0.0
2018-Jul-13 23:24N 01°26' E 103°55'0 0.0
2018-Jul-13 23:00N 01°26' E 103°55'0 0.0
2018-Jul-13 22:24N 01°26' E 103°55'0 0.0
2018-Jul-13 21:57N 01°26' E 103°55'0 0.0
2018-Jul-13 21:27N 01°26' E 103°55'0 0.0
2018-Jul-13 21:00N 01°26' E 103°55'0 0.0
2018-Jul-13 20:24N 01°26' E 103°55'0 0.0
2018-Jul-13 20:00N 01°26' E 103°55'0 0.0
2018-Jul-13 19:30N 01°26' E 103°55'0 0.0
2018-Jul-13 18:52N 01°26' E 103°55'0 0.0
2018-Jul-13 18:28N 01°26' E 103°55'0 0.0
2018-Jul-13 18:00N 01°26' E 103°55'0 0.0
2018-Jul-13 17:30N 01°26' E 103°55'0 0.0
2018-Jul-13 17:00N 01°26' E 103°55'0 0.0
2018-Jul-13 16:30N 01°26' E 103°55'0 0.0
2018-Jul-13 16:00N 01°26' E 103°55'0 0.0
2018-Jul-13 15:28N 01°26' E 103°55'0 0.0
2018-Jul-13 14:57N 01°26' E 103°55'0 0.0
2018-Jul-13 14:00N 01°26' E 103°55'0 0.0
2018-Jul-13 13:30N 01°26' E 103°55'0 0.0
2018-Jul-13 13:00N 01°26' E 103°55'0 0.0
2018-Jul-13 12:30N 01°26' E 103°55'0 0.0
2018-Jul-13 12:00N 01°26' E 103°55'0 0.0
2018-Jul-13 11:30N 01°26' E 103°55'0 0.0
2018-Jul-13 10:55N 01°26' E 103°55'0 0.0
2018-Jul-13 10:30N 01°26' E 103°55'0 0.0
2018-Jul-13 10:00N 01°26' E 103°55'0 0.0
2018-Jul-13 09:30N 01°26' E 103°55'0 0.0
2018-Jul-13 09:00N 01°26' E 103°55'0 0.0
2018-Jul-13 08:28N 01°26' E 103°55'0 0.0
2018-Jul-13 08:00N 01°26' E 103°55'0 0.0
2018-Jul-13 07:30N 01°26' E 103°55'0 0.0
2018-Jul-13 06:57N 01°26' E 103°55'0 0.0
2018-Jul-13 06:30N 01°26' E 103°55'0 0.0
2018-Jul-13 06:00N 01°26' E 103°55'0 0.0
2018-Jul-13 05:28N 01°26' E 103°55'0 0.0
2018-Jul-13 05:00N 01°26' E 103°55'0 0.0
2018-Jul-13 04:30N 01°26' E 103°55'0 0.0
2018-Jul-13 04:00N 01°26' E 103°55'0 0.0
2018-Jul-13 03:30N 01°26' E 103°55'0 0.0
2018-Jul-13 03:00N 01°26' E 103°55'0 0.0
2018-Jul-13 02:25N 01°26' E 103°55'0 0.0
2018-Jul-13 02:00N 01°26' E 103°55'0 0.0
2018-Jul-13 01:31N 01°26' E 103°55'0 0.0
2018-Jul-13 00:57N 01°26' E 103°55'0 0.0
2018-Jul-13 00:30N 01°26' E 103°55'0 0.0
2018-Jul-13 00:00N 01°26' E 103°55'0 0.0
2018-Jul-12 23:30N 01°26' E 103°55'0 0.0
2018-Jul-12 23:00N 01°26' E 103°55'0 0.0
2018-Jul-12 22:30N 01°26' E 103°55'0 0.0
2018-Jul-12 21:58N 01°26' E 103°55'0 0.0
2018-Jul-12 21:30N 01°26' E 103°55'0 0.0
2018-Jul-12 21:00N 01°26' E 103°55'0 0.0
2018-Jul-12 20:28N 01°26' E 103°55'0 0.0
2018-Jul-12 20:00N 01°26' E 103°55'0 0.0
2018-Jul-12 19:27N 01°26' E 103°55'0 0.0
2018-Jul-12 18:57N 01°26' E 103°55'0 0.0
2018-Jul-12 18:30N 01°26' E 103°55'0 0.0
2018-Jul-12 18:00N 01°26' E 103°55'0 0.0
2018-Jul-12 17:30N 01°26' E 103°55'0 0.0
2018-Jul-12 16:54N 01°26' E 103°55'0 0.0
2018-Jul-12 16:30N 01°26' E 103°55'0 0.0
2018-Jul-12 16:00N 01°26' E 103°55'0 0.0
2018-Jul-12 15:28N 01°26' E 103°55'0 0.0
2018-Jul-12 15:00N 01°26' E 103°55'0 0.0
2018-Jul-12 14:30N 01°26' E 103°55'0 0.0
2018-Jul-12 13:37N 01°26' E 103°55'0 0.0
2018-Jul-12 13:30N 01°26' E 103°55'0 0.0
2018-Jul-12 13:00N 01°26' E 103°55'0 0.0
2018-Jul-12 12:27N 01°26' E 103°55'0 0.0
2018-Jul-12 11:57N 01°26' E 103°55'0 0.0
2018-Jul-12 11:24N 01°26' E 103°55'0 0.0
2018-Jul-12 10:57N 01°26' E 103°55'0 0.0
2018-Jul-12 10:21N 01°26' E 103°55'0 0.0
2018-Jul-12 09:58N 01°26' E 103°55'0 0.0
2018-Jul-12 09:21N 01°26' E 103°55'0 0.0
2018-Jul-12 09:00N 01°26' E 103°55'0 0.0
2018-Jul-12 08:30N 01°26' E 103°55'0 0.0
2018-Jul-12 07:57N 01°26' E 103°55'0 0.0
2018-Jul-12 07:31N 01°26' E 103°55'0 0.0
2018-Jul-12 06:54N 01°26' E 103°55'0 0.0
2018-Jul-12 06:30N 01°26' E 103°55'0 0.5
2018-Jul-12 06:00N 01°26' E 103°55'2 4.3
2018-Jul-12 05:31N 01°25' E 103°56'5 9.4
2018-Jul-12 05:00N 01°23' E 104°01'510.4
2018-Jul-12 04:31N 01°20' E 104°05'2 3.7
2018-Jul-12 03:59N 01°19' E 104°06'0 0.0
2018-Jul-12 03:29N 01°19' E 104°06'0 0.1
2018-Jul-12 02:56N 01°19' E 104°06'1 1.1
2018-Jul-12 02:28N 01°19' E 104°06'0 0.0
2018-Jul-12 01:56N 01°19' E 104°06'0 0.0
2018-Jul-12 01:29N 01°19' E 104°06'0 0.0
2018-Jul-12 00:58N 01°19' E 104°06'0 0.0
2018-Jul-12 00:22N 01°19' E 104°06'0 0.1
2018-Jul-11 23:46N 01°19' E 104°06'0 0.0
2018-Jul-11 23:28N 01°19' E 104°06'0 0.0
2018-Jul-11 22:50N 01°19' E 104°06'0 0.1
2018-Jul-11 21:49N 01°19' E 104°06'0 0.2
2018-Jul-11 21:26N 01°19' E 104°06'0 0.0
2018-Jul-11 20:56N 01°19' E 104°06'0 0.0
2018-Jul-11 20:26N 01°19' E 104°06'0 0.0
2018-Jul-11 19:59N 01°19' E 104°06'0 0.0
2018-Jul-11 19:17N 01°19' E 104°06'0 0.0
2018-Jul-11 18:59N 01°19' E 104°06'0 0.0
2018-Jul-11 18:23N 01°19' E 104°06'0 0.0
2018-Jul-11 17:58N 01°19' E 104°06'0 0.0
2018-Jul-11 17:11N 01°19' E 104°06'0 0.0
2018-Jul-11 16:47N 01°19' E 104°06'0 0.0
2018-Jul-11 16:23N 01°19' E 104°06'0 0.0
2018-Jul-11 15:53N 01°19' E 104°06'0 0.0
2018-Jul-11 15:17N 01°19' E 104°06'0 0.2
2018-Jul-11 14:59N 01°19' E 104°06'0 0.1
2018-Jul-11 14:23N 01°19' E 104°06'0 0.0
2018-Jul-11 13:58N 01°19' E 104°06'0 0.1
2018-Jul-11 13:23N 01°19' E 104°06'0 0.1
2018-Jul-11 12:52N 01°19' E 104°06'0 0.0
2018-Jul-11 12:11N 01°19' E 104°06'0 0.0
2018-Jul-11 11:26N 01°19' E 104°06'0 0.0
2018-Jul-11 10:17N 01°19' E 104°06'0 0.1
2018-Jul-11 09:50N 01°19' E 104°06'0 0.1
2018-Jul-11 09:16N 01°19' E 104°06'0 0.0
2018-Jul-11 08:11N 01°19' E 104°06'0 0.1
2018-Jul-11 07:59N 01°19' E 104°06'0 0.1
2018-Jul-11 07:14N 01°19' E 104°06'0 0.2
2018-Jul-11 06:59N 01°19' E 104°06'0 0.1
2018-Jul-11 06:23N 01°19' E 104°06'0 0.0
2018-Jul-11 05:59N 01°19' E 104°06'0 0.0
2018-Jul-11 05:26N 01°19' E 104°06'0 0.0
2018-Jul-11 04:49N 01°19' E 104°06'0 0.0
2018-Jul-11 04:22N 01°19' E 104°06'0 0.1
2018-Jul-11 03:47N 01°19' E 104°06'0 0.0
2018-Jul-11 03:20N 01°19' E 104°06'0 0.0
2018-Jul-11 02:46N 01°19' E 104°06'0 0.0
2018-Jul-11 02:13N 01°19' E 104°06'0 0.0
2018-Jul-11 01:38N 01°19' E 104°06'0 0.0
2018-Jul-11 01:22N 01°19' E 104°06'0 0.1
2018-Jul-11 00:53N 01°19' E 104°06'0 0.0
2018-Jul-11 00:28N 01°19' E 104°06'0 0.0
2018-Jul-10 23:53N 01°19' E 104°06'0 0.1
2018-Jul-10 23:25N 01°19' E 104°06'0 0.0
2018-Jul-10 22:59N 01°19' E 104°06'0 0.0
2018-Jul-10 22:17N 01°19' E 104°06'0 0.1
2018-Jul-10 21:34N 01°19' E 104°06'0 0.1
2018-Jul-10 21:28N 01°19' E 104°06'0 0.0
2018-Jul-10 20:35N 01°19' E 104°06'0 0.0
2018-Jul-10 20:26N 01°19' E 104°06'0 0.1
2018-Jul-10 19:56N 01°19' E 104°06'0 0.0
2018-Jul-10 19:29N 01°19' E 104°06'0 0.0
2018-Jul-10 18:47N 01°19' E 104°06'0 0.0
2018-Jul-10 18:23N 01°19' E 104°06'1 2.0
2018-Jul-10 17:59N 01°18' E 104°07'510.2
2018-Jul-10 17:30N 01°15' E 104°03'713.8
2018-Jul-10 16:59N 01°13' E 103°56'714.2
2018-Jul-10 16:30N 01°11' E 103°50'814.2
2018-Jul-10 15:59N 01°06' E 103°44'611.9
2018-Jul-10 15:29N 01°03' E 103°39'612.4
2018-Jul-10 14:59N 01°06' E 103°33'612.3
2018-Jul-10 14:30N 01°09' E 103°28'612.2
2018-Jul-10 13:59N 01°12' E 103°23'612.2
2018-Jul-10 13:30N 01°16' E 103°19'19 0.5
2018-Jul-08 19:25N 01°31' E 103°07'712.2
2018-Jul-08 18:52N 01°27' E 103°12'512.2
2018-Jul-08 18:29N 01°23' E 103°15'712.6
2018-Jul-08 17:57N 01°19' E 103°20'612.8
2018-Jul-08 17:30N 01°15' E 103°24'612.3
2018-Jul-08 16:59N 01°13' E 103°30'611.5
2018-Jul-08 16:30N 01°11' E 103°36'611.2
2018-Jul-08 16:00N 01°10' E 103°41'5 9.4
2018-Jul-08 15:30N 01°09' E 103°46'5 8.7
2018-Jul-08 14:59N 01°12' E 103°49'2 5.2
2018-Jul-08 14:30N 01°15' E 103°49'0 0.0
2018-Jul-08 13:57N 01°15' E 103°49'0 0.1
2018-Jul-08 13:30N 01°15' E 103°49'0 0.0
2018-Jul-08 13:00N 01°15' E 103°49'0 0.0
2018-Jul-08 12:30N 01°15' E 103°49'0 0.0
2018-Jul-08 11:55N 01°15' E 103°49'0 0.0
2018-Jul-08 11:30N 01°15' E 103°49'0 0.1
2018-Jul-08 11:00N 01°15' E 103°49'0 0.0
2018-Jul-08 10:28N 01°15' E 103°49'0 0.0
2018-Jul-08 09:49N 01°15' E 103°49'0 0.0
2018-Jul-08 09:27N 01°15' E 103°49'0 0.0
2018-Jul-08 08:58N 01°15' E 103°49'0 0.0
2018-Jul-08 08:30N 01°15' E 103°49'0 0.0
2018-Jul-08 07:46N 01°15' E 103°49'0 0.0
2018-Jul-08 07:28N 01°15' E 103°49'0 0.0
2018-Jul-08 06:52N 01°15' E 103°49'0 0.0
2018-Jul-08 06:30N 01°15' E 103°49'0 0.0
2018-Jul-08 05:57N 01°15' E 103°49'0 0.9
2018-Jul-08 05:29N 01°15' E 103°48'4 7.7
2018-Jul-08 05:01N 01°16' E 103°45'2 3.5
2018-Jul-08 04:22N 01°18' E 103°43'0 0.0
2018-Jul-08 03:49N 01°18' E 103°43'0 0.0
2018-Jul-08 03:28N 01°18' E 103°43'0 0.0
2018-Jul-08 02:55N 01°18' E 103°43'0 0.0
2018-Jul-08 02:31N 01°18' E 103°43'0 0.0
2018-Jul-08 01:55N 01°18' E 103°43'0 0.0
2018-Jul-08 01:28N 01°18' E 103°43'0 0.1
2018-Jul-08 00:58N 01°18' E 103°43'0 0.0
2018-Jul-08 00:31N 01°18' E 103°43'0 0.1
2018-Jul-08 00:01N 01°18' E 103°43'0 0.0
2018-Jul-07 23:28N 01°18' E 103°43'0 0.0
2018-Jul-07 22:49N 01°18' E 103°43'0 0.0
2018-Jul-07 22:31N 01°18' E 103°43'1 1.6
2018-Jul-07 22:00N 01°18' E 103°44'1 2.3
2018-Jul-07 21:30N 01°17' E 103°45'611.0
2018-Jul-07 20:58N 01°13' E 103°49'5 9.7
2018-Jul-07 20:30N 01°13' E 103°53'5 9.7
2018-Jul-07 20:01N 01°15' E 103°58'611.8
2018-Jul-07 19:29N 01°16' E 104°04'611.9
2018-Jul-07 18:58N 01°17' E 104°10'611.8
2018-Jul-07 18:29N 01°18' E 104°16'611.1
2018-Jul-07 17:59N 01°19' E 104°21'610.9
2018-Jul-07 17:27N 01°23' E 104°25'  
Track history (hours):
 
Tides and Currents Weather Stations Pressure Air Temp Water Temp Dewpoint Dewpoint Depression Visibility Wind Speed Wind Dir Waves Ship Positions

Silver Lucky

Last reported at 2018-Jul-15 12:48 UTC. Time now 2018-Jul-21 02:03 UTC.
Position N 01°22' E 104°25'.

Length 120 m; draft 8.5 m.

Type: Cargo ship. MMSI: 477746300.

Date/timePositionNaut miles runAvg speedWind from/ knotsBaromVisibWave heightAir tempDewpointWater temp
2018-Jul-15 12:48N 01°22' E 104°25'310.0
2018-Jul-15 12:30N 01°20' E 104°23'5 9.2
2018-Jul-15 11:56N 01°17' E 104°19'4 9.2
2018-Jul-15 11:30N 01°16' E 104°15'510.3
2018-Jul-15 10:59N 01°16' E 104°10'4 8.2
2018-Jul-15 10:30N 01°18' E 104°06'510.3
2018-Jul-15 09:59N 01°22' E 104°03'5 9.9
2018-Jul-15 09:30N 01°24' E 103°58'4 8.2
2018-Jul-15 08:59N 01°26' E 103°55'0 0.4
2018-Jul-15 08:29N 01°26' E 103°55'0 0.0
2018-Jul-15 07:58N 01°26' E 103°55'0 0.0
2018-Jul-15 07:30N 01°26' E 103°55'0 0.0
2018-Jul-15 06:58N 01°26' E 103°55'0 0.0
2018-Jul-15 06:15N 01°26' E 103°55'0 0.0
2018-Jul-15 05:51N 01°26' E 103°55'0 0.0
2018-Jul-15 04:43N 01°26' E 103°55'0 0.0
2018-Jul-15 03:31N 01°26' E 103°55'0 0.0
2018-Jul-15 03:28N 01°26' E 103°55'0 0.0
2018-Jul-15 02:46N 01°26' E 103°55'0 0.0
2018-Jul-15 02:22N 01°26' E 103°55'0 0.0
2018-Jul-15 01:10N 01°26' E 103°55'0 0.0
2018-Jul-15 00:42N 01°26' E 103°55'0 0.0
2018-Jul-15 00:21N 01°26' E 103°55'0 0.0
2018-Jul-14 23:46N 01°26' E 103°55'0 0.0
2018-Jul-14 23:22N 01°26' E 103°55'0 0.0
2018-Jul-14 22:54N 01°26' E 103°55'0 0.0
2018-Jul-14 22:21N 01°26' E 103°55'0 0.0
2018-Jul-14 21:57N 01°26' E 103°55'0 0.0
2018-Jul-14 21:27N 01°26' E 103°55'0 0.0
2018-Jul-14 20:49N 01°26' E 103°55'0 0.0
2018-Jul-14 20:30N 01°26' E 103°55'0 0.0
2018-Jul-14 19:57N 01°26' E 103°55'0 0.0
2018-Jul-14 19:30N 01°26' E 103°55'0 0.0
2018-Jul-14 18:57N 01°26' E 103°55'0 0.0
2018-Jul-14 18:28N 01°26' E 103°55'0 0.0
2018-Jul-14 17:57N 01°26' E 103°55'0 0.0
2018-Jul-14 17:30N 01°26' E 103°55'0 0.0
2018-Jul-14 16:58N 01°26' E 103°55'0 0.0
2018-Jul-14 16:30N 01°26' E 103°55'0 0.0
2018-Jul-14 15:58N 01°26' E 103°55'0 0.0
2018-Jul-14 15:30N 01°26' E 103°55'0 0.0
2018-Jul-14 14:54N 01°26' E 103°55'0 0.0
2018-Jul-14 14:30N 01°26' E 103°55'0 0.0
2018-Jul-14 13:30N 01°26' E 103°55'0 0.0
2018-Jul-14 12:58N 01°26' E 103°55'0 0.0
2018-Jul-14 12:15N 01°26' E 103°55'0 0.0
2018-Jul-14 11:57N 01°26' E 103°55'0 0.0
2018-Jul-14 11:21N 01°26' E 103°55'0 0.0
2018-Jul-14 10:57N 01°26' E 103°55'0 0.0
2018-Jul-14 10:28N 01°26' E 103°55'0 0.0
2018-Jul-14 09:57N 01°26' E 103°55'0 0.0
2018-Jul-14 09:30N 01°26' E 103°55'0 0.0
2018-Jul-14 08:57N 01°26' E 103°55'0 0.0
2018-Jul-14 08:15N 01°26' E 103°55'0 0.0
2018-Jul-14 07:57N 01°26' E 103°55'0 0.0
2018-Jul-14 06:42N 01°26' E 103°55'0 0.0
2018-Jul-14 06:30N 01°26' E 103°55'0 0.0
2018-Jul-14 05:34N 01°26' E 103°55'0 0.0
2018-Jul-14 05:28N 01°26' E 103°55'0 0.0
2018-Jul-14 04:54N 01°26' E 103°55'0 0.0
2018-Jul-14 04:27N 01°26' E 103°55'0 0.0
2018-Jul-14 03:45N 01°26' E 103°55'0 0.0
2018-Jul-14 03:22N 01°26' E 103°55'0 0.0
2018-Jul-14 03:00N 01°26' E 103°55'0 0.0
2018-Jul-14 02:30N 01°26' E 103°55'0 0.0
2018-Jul-14 01:54N 01°26' E 103°55'0 0.0
2018-Jul-14 01:27N 01°26' E 103°55'0 0.0
2018-Jul-14 00:58N 01°26' E 103°55'0 0.0
2018-Jul-14 00:15N 01°26' E 103°55'0 0.0
2018-Jul-13 23:52N 01°26' E 103°55'0 0.0
2018-Jul-13 23:24N 01°26' E 103°55'0 0.0
2018-Jul-13 23:00N 01°26' E 103°55'0 0.0
2018-Jul-13 22:24N 01°26' E 103°55'0 0.0
2018-Jul-13 21:57N 01°26' E 103°55'0 0.0
2018-Jul-13 21:27N 01°26' E 103°55'0 0.0
2018-Jul-13 21:00N 01°26' E 103°55'0 0.0
2018-Jul-13 20:24N 01°26' E 103°55'0 0.0
2018-Jul-13 20:00N 01°26' E 103°55'0 0.0
2018-Jul-13 19:30N 01°26' E 103°55'0 0.0
2018-Jul-13 18:52N 01°26' E 103°55'0 0.0
2018-Jul-13 18:28N 01°26' E 103°55'0 0.0
2018-Jul-13 18:00N 01°26' E 103°55'0 0.0
2018-Jul-13 17:30N 01°26' E 103°55'0 0.0
2018-Jul-13 17:00N 01°26' E 103°55'0 0.0
2018-Jul-13 16:30N 01°26' E 103°55'0 0.0
2018-Jul-13 16:00N 01°26' E 103°55'0 0.0
2018-Jul-13 15:28N 01°26' E 103°55'0 0.0
2018-Jul-13 14:57N 01°26' E 103°55'0 0.0
2018-Jul-13 14:00N 01°26' E 103°55'0 0.0
2018-Jul-13 13:30N 01°26' E 103°55'0 0.0
2018-Jul-13 13:00N 01°26' E 103°55'0 0.0
2018-Jul-13 12:30N 01°26' E 103°55'0 0.0
2018-Jul-13 12:00N 01°26' E 103°55'0 0.0
2018-Jul-13 11:30N 01°26' E 103°55'0 0.0
2018-Jul-13 10:55N 01°26' E 103°55'0 0.0
2018-Jul-13 10:30N 01°26' E 103°55'0 0.0
2018-Jul-13 10:00N 01°26' E 103°55'0 0.0
2018-Jul-13 09:30N 01°26' E 103°55'0 0.0
2018-Jul-13 09:00N 01°26' E 103°55'0 0.0
2018-Jul-13 08:28N 01°26' E 103°55'0 0.0
2018-Jul-13 08:00N 01°26' E 103°55'0 0.0
2018-Jul-13 07:30N 01°26' E 103°55'0 0.0
2018-Jul-13 06:57N 01°26' E 103°55'0 0.0
2018-Jul-13 06:30N 01°26' E 103°55'0 0.0
2018-Jul-13 06:00N 01°26' E 103°55'0 0.0
2018-Jul-13 05:28N 01°26' E 103°55'0 0.0
2018-Jul-13 05:00N 01°26' E 103°55'0 0.0
2018-Jul-13 04:30N 01°26' E 103°55'0 0.0
2018-Jul-13 04:00N 01°26' E 103°55'0 0.0
2018-Jul-13 03:30N 01°26' E 103°55'0 0.0
2018-Jul-13 03:00N 01°26' E 103°55'0 0.0
2018-Jul-13 02:25N 01°26' E 103°55'0 0.0
2018-Jul-13 02:00N 01°26' E 103°55'0 0.0
2018-Jul-13 01:31N 01°26' E 103°55'0 0.0
2018-Jul-13 00:57N 01°26' E 103°55'0 0.0
2018-Jul-13 00:30N 01°26' E 103°55'0 0.0
2018-Jul-13 00:00N 01°26' E 103°55'0 0.0
2018-Jul-12 23:30N 01°26' E 103°55'0 0.0
2018-Jul-12 23:00N 01°26' E 103°55'0 0.0
2018-Jul-12 22:30N 01°26' E 103°55'0 0.0
2018-Jul-12 21:58N 01°26' E 103°55'0 0.0
2018-Jul-12 21:30N 01°26' E 103°55'0 0.0
2018-Jul-12 21:00N 01°26' E 103°55'0 0.0
2018-Jul-12 20:28N 01°26' E 103°55'0 0.0
2018-Jul-12 20:00N 01°26' E 103°55'0 0.0
2018-Jul-12 19:27N 01°26' E 103°55'0 0.0
2018-Jul-12 18:57N 01°26' E 103°55'0 0.0
2018-Jul-12 18:30N 01°26' E 103°55'0 0.0
2018-Jul-12 18:00N 01°26' E 103°55'0 0.0
2018-Jul-12 17:30N 01°26' E 103°55'0 0.0
2018-Jul-12 16:54N 01°26' E 103°55'0 0.0
2018-Jul-12 16:30N 01°26' E 103°55'0 0.0
2018-Jul-12 16:00N 01°26' E 103°55'0 0.0
2018-Jul-12 15:28N 01°26' E 103°55'0 0.0
2018-Jul-12 15:00N 01°26' E 103°55'0 0.0
2018-Jul-12 14:30N 01°26' E 103°55'0 0.0
2018-Jul-12 13:37N 01°26' E 103°55'0 0.0
2018-Jul-12 13:30N 01°26' E 103°55'0 0.0
2018-Jul-12 13:00N 01°26' E 103°55'0 0.0
2018-Jul-12 12:27N 01°26' E 103°55'0 0.0
2018-Jul-12 11:57N 01°26' E 103°55'0 0.0
2018-Jul-12 11:24N 01°26' E 103°55'0 0.0
2018-Jul-12 10:57N 01°26' E 103°55'0 0.0
2018-Jul-12 10:21N 01°26' E 103°55'0 0.0
2018-Jul-12 09:58N 01°26' E 103°55'0 0.0
2018-Jul-12 09:21N 01°26' E 103°55'0 0.0
2018-Jul-12 09:00N 01°26' E 103°55'0 0.0
2018-Jul-12 08:30N 01°26' E 103°55'0 0.0
2018-Jul-12 07:57N 01°26' E 103°55'0 0.0
2018-Jul-12 07:31N 01°26' E 103°55'0 0.0
2018-Jul-12 06:54N 01°26' E 103°55'0 0.0
2018-Jul-12 06:30N 01°26' E 103°55'0 0.5
2018-Jul-12 06:00N 01°26' E 103°55'2 4.3
2018-Jul-12 05:31N 01°25' E 103°56'5 9.4
2018-Jul-12 05:00N 01°23' E 104°01'510.4
2018-Jul-12 04:31N 01°20' E 104°05'2 3.7
2018-Jul-12 03:59N 01°19' E 104°06'0 0.0
2018-Jul-12 03:29N 01°19' E 104°06'0 0.1
2018-Jul-12 02:56N 01°19' E 104°06'1 1.1
2018-Jul-12 02:28N 01°19' E 104°06'0 0.0
2018-Jul-12 01:56N 01°19' E 104°06'0 0.0
2018-Jul-12 01:29N 01°19' E 104°06'0 0.0
2018-Jul-12 00:58N 01°19' E 104°06'0 0.0
2018-Jul-12 00:22N 01°19' E 104°06'0 0.1
2018-Jul-11 23:46N 01°19' E 104°06'0 0.0
2018-Jul-11 23:28N 01°19' E 104°06'0 0.0
2018-Jul-11 22:50N 01°19' E 104°06'0 0.1
2018-Jul-11 21:49N 01°19' E 104°06'0 0.2
2018-Jul-11 21:26N 01°19' E 104°06'0 0.0
2018-Jul-11 20:56N 01°19' E 104°06'0 0.0
2018-Jul-11 20:26N 01°19' E 104°06'0 0.0
2018-Jul-11 19:59N 01°19' E 104°06'0 0.0
2018-Jul-11 19:17N 01°19' E 104°06'0 0.0
2018-Jul-11 18:59N 01°19' E 104°06'0 0.0
2018-Jul-11 18:23N 01°19' E 104°06'0 0.0
2018-Jul-11 17:58N 01°19' E 104°06'0 0.0
2018-Jul-11 17:11N 01°19' E 104°06'0 0.0
2018-Jul-11 16:47N 01°19' E 104°06'0 0.0
2018-Jul-11 16:23N 01°19' E 104°06'0 0.0
2018-Jul-11 15:53N 01°19' E 104°06'0 0.0
2018-Jul-11 15:17N 01°19' E 104°06'0 0.2
2018-Jul-11 14:59N 01°19' E 104°06'0 0.1
2018-Jul-11 14:23N 01°19' E 104°06'0 0.0
2018-Jul-11 13:58N 01°19' E 104°06'0 0.1
2018-Jul-11 13:23N 01°19' E 104°06'0 0.1
2018-Jul-11 12:52N 01°19' E 104°06'0 0.0
2018-Jul-11 12:11N 01°19' E 104°06'0 0.0
2018-Jul-11 11:26N 01°19' E 104°06'0 0.0
2018-Jul-11 10:17N 01°19' E 104°06'0 0.1
2018-Jul-11 09:50N 01°19' E 104°06'0 0.1
2018-Jul-11 09:16N 01°19' E 104°06'0 0.0
2018-Jul-11 08:11N 01°19' E 104°06'0 0.1
2018-Jul-11 07:59N 01°19' E 104°06'0 0.1
2018-Jul-11 07:14N 01°19' E 104°06'0 0.2
2018-Jul-11 06:59N 01°19' E 104°06'0 0.1
2018-Jul-11 06:23N 01°19' E 104°06'0 0.0
2018-Jul-11 05:59N 01°19' E 104°06'0 0.0
2018-Jul-11 05:26N 01°19' E 104°06'0 0.0
2018-Jul-11 04:49N 01°19' E 104°06'0 0.0
2018-Jul-11 04:22N 01°19' E 104°06'0 0.1
2018-Jul-11 03:47N 01°19' E 104°06'0 0.0
2018-Jul-11 03:20N 01°19' E 104°06'0 0.0
2018-Jul-11 02:46N 01°19' E 104°06'0 0.0
2018-Jul-11 02:13N 01°19' E 104°06'0 0.0
2018-Jul-11 01:38N 01°19' E 104°06'0 0.0
2018-Jul-11 01:22N 01°19' E 104°06'0 0.1
2018-Jul-11 00:53N 01°19' E 104°06'0 0.0
2018-Jul-11 00:28N 01°19' E 104°06'0 0.0
2018-Jul-10 23:53N 01°19' E 104°06'0 0.1
2018-Jul-10 23:25N 01°19' E 104°06'0 0.0
2018-Jul-10 22:59N 01°19' E 104°06'0 0.0
2018-Jul-10 22:17N 01°19' E 104°06'0 0.1
2018-Jul-10 21:34N 01°19' E 104°06'0 0.1
2018-Jul-10 21:28N 01°19' E 104°06'0 0.0
2018-Jul-10 20:35N 01°19' E 104°06'0 0.0
2018-Jul-10 20:26N 01°19' E 104°06'0 0.1
2018-Jul-10 19:56N 01°19' E 104°06'0 0.0
2018-Jul-10 19:29N 01°19' E 104°06'0 0.0
2018-Jul-10 18:47N 01°19' E 104°06'0 0.0
2018-Jul-10 18:23N 01°19' E 104°06'1 2.0
2018-Jul-10 17:59N 01°18' E 104°07'510.2
2018-Jul-10 17:30N 01°15' E 104°03'713.8
2018-Jul-10 16:59N 01°13' E 103°56'714.2
2018-Jul-10 16:30N 01°11' E 103°50'814.2
2018-Jul-10 15:59N 01°06' E 103°44'611.9
2018-Jul-10 15:29N 01°03' E 103°39'612.4
2018-Jul-10 14:59N 01°06' E 103°33'612.3
2018-Jul-10 14:30N 01°09' E 103°28'612.2
2018-Jul-10 13:59N 01°12' E 103°23'612.2
2018-Jul-10 13:30N 01°16' E 103°19'19 0.5
2018-Jul-08 19:25N 01°31' E 103°07'712.2
2018-Jul-08 18:52N 01°27' E 103°12'512.2
2018-Jul-08 18:29N 01°23' E 103°15'712.6
2018-Jul-08 17:57N 01°19' E 103°20'612.8
2018-Jul-08 17:30N 01°15' E 103°24'612.3
2018-Jul-08 16:59N 01°13' E 103°30'611.5
2018-Jul-08 16:30N 01°11' E 103°36'611.2
2018-Jul-08 16:00N 01°10' E 103°41'5 9.4
2018-Jul-08 15:30N 01°09' E 103°46'5 8.7
2018-Jul-08 14:59N 01°12' E 103°49'2 5.2
2018-Jul-08 14:30N 01°15' E 103°49'0 0.0
2018-Jul-08 13:57N 01°15' E 103°49'0 0.1
2018-Jul-08 13:30N 01°15' E 103°49'0 0.0
2018-Jul-08 13:00N 01°15' E 103°49'0 0.0
2018-Jul-08 12:30N 01°15' E 103°49'0 0.0
2018-Jul-08 11:55N 01°15' E 103°49'0 0.0
2018-Jul-08 11:30N 01°15' E 103°49'0 0.1
2018-Jul-08 11:00N 01°15' E 103°49'0 0.0
2018-Jul-08 10:28N 01°15' E 103°49'0 0.0
2018-Jul-08 09:49N 01°15' E 103°49'0 0.0
2018-Jul-08 09:27N 01°15' E 103°49'0 0.0
2018-Jul-08 08:58N 01°15' E 103°49'0 0.0
2018-Jul-08 08:30N 01°15' E 103°49'0 0.0
2018-Jul-08 07:46N 01°15' E 103°49'0 0.0
2018-Jul-08 07:28N 01°15' E 103°49'0 0.0
2018-Jul-08 06:52N 01°15' E 103°49'0 0.0
2018-Jul-08 06:30N 01°15' E 103°49'0 0.0
2018-Jul-08 05:57N 01°15' E 103°49'0 0.9
2018-Jul-08 05:29N 01°15' E 103°48'4 7.7
2018-Jul-08 05:01N 01°16' E 103°45'2 3.5
2018-Jul-08 04:22N 01°18' E 103°43'0 0.0
2018-Jul-08 03:49N 01°18' E 103°43'0 0.0
2018-Jul-08 03:28N 01°18' E 103°43'0 0.0
2018-Jul-08 02:55N 01°18' E 103°43'0 0.0
2018-Jul-08 02:31N 01°18' E 103°43'0 0.0
2018-Jul-08 01:55N 01°18' E 103°43'0 0.0
2018-Jul-08 01:28N 01°18' E 103°43'0 0.1
2018-Jul-08 00:58N 01°18' E 103°43'0 0.0
2018-Jul-08 00:31N 01°18' E 103°43'0 0.1
2018-Jul-08 00:01N 01°18' E 103°43'0 0.0
2018-Jul-07 23:28N 01°18' E 103°43'0 0.0
2018-Jul-07 22:49N 01°18' E 103°43'0 0.0
2018-Jul-07 22:31N 01°18' E 103°43'1 1.6
2018-Jul-07 22:00N 01°18' E 103°44'1 2.3
2018-Jul-07 21:30N 01°17' E 103°45'611.0
2018-Jul-07 20:58N 01°13' E 103°49'5 9.7
2018-Jul-07 20:30N 01°13' E 103°53'5 9.7
2018-Jul-07 20:01N 01°15' E 103°58'611.8
2018-Jul-07 19:29N 01°16' E 104°04'611.9
2018-Jul-07 18:58N 01°17' E 104°10'611.8
2018-Jul-07 18:29N 01°18' E 104°16'611.1
2018-Jul-07 17:59N 01°19' E 104°21'610.9
2018-Jul-07 17:27N 01°23' E 104°25'  

Dump ship's entire track history